CCA1915 ZBAA-ZHCC
Flight info
| Callsign | CCA1915 |
|---|---|
| Flight time | 1h 20m |
| Altitude | 34100 |
| Route | K0854S1040 RUSDO6J RUSDO W45 VAGBI B215 EKETA/K0848S1070 B208 NOPIN NOP10U |
| Aircraft | B38M/M-SDE1FGHILORVWXY/HB1 |
Departure
| Time | 2026-05-08 09:24 |
|---|---|
| Airport | Beijing Capital International Airport (ZBAA) |
Arrival
| Time | 2026-05-08 10:45 |
|---|---|
| Airport | Zhengzhou Xinzheng International Airport (ZHCC) |
| Time | Latitude | Longitude | Altitude | Speed | Heading |
|---|---|---|---|---|---|
| 2026-05-08 08:17 | 40.06581 | 116.60601 | 126 ft | 0 kts | 83° |
| 2026-05-08 09:08 | 40.06580 | 116.60595 | 126 ft | 3 kts | 83° |
| 2026-05-08 09:08 | 40.06576 | 116.60561 | 125 ft | 4 kts | 78° |
| 2026-05-08 09:08 | 40.06569 | 116.60527 | 123 ft | 4 kts | 71° |
| 2026-05-08 09:08 | 40.06558 | 116.60495 | 121 ft | 4 kts | 54° |
| 2026-05-08 09:09 | 40.06540 | 116.60476 | 122 ft | 4 kts | 4° |
| 2026-05-08 09:09 | 40.06531 | 116.60477 | 137 ft | 0 kts | 353° |
| 2026-05-08 09:13 | 40.06539 | 116.60476 | 121 ft | 2 kts | 353° |
| 2026-05-08 09:13 | 40.06565 | 116.60471 | 105 ft | 5 kts | 353° |
| 2026-05-08 09:13 | 40.06607 | 116.60464 | 123 ft | 7 kts | 353° |
| 2026-05-08 09:13 | 40.06662 | 116.60455 | 125 ft | 9 kts | 353° |
| 2026-05-08 09:14 | 40.06732 | 116.60444 | 124 ft | 11 kts | 353° |
| 2026-05-08 09:14 | 40.06815 | 116.60432 | 124 ft | 13 kts | 354° |
| 2026-05-08 09:14 | 40.06881 | 116.60370 | 126 ft | 13 kts | 268° |
| 2026-05-08 09:14 | 40.06869 | 116.60251 | 124 ft | 14 kts | 264° |
| 2026-05-08 09:15 | 40.06857 | 116.60118 | 126 ft | 16 kts | 263° |
| 2026-05-08 09:15 | 40.06896 | 116.60038 | 125 ft | 9 kts | 347° |
| 2026-05-08 09:15 | 40.06964 | 116.60028 | 122 ft | 11 kts | 354° |
| 2026-05-08 09:15 | 40.07045 | 116.60015 | 126 ft | 13 kts | 353° |
| 2026-05-08 09:16 | 40.07139 | 116.59999 | 124 ft | 15 kts | 353° |
| 2026-05-08 09:16 | 40.07245 | 116.59984 | 123 ft | 16 kts | 353° |
| 2026-05-08 09:16 | 40.07363 | 116.59966 | 123 ft | 18 kts | 353° |
| 2026-05-08 09:16 | 40.07492 | 116.59945 | 124 ft | 20 kts | 353° |
| 2026-05-08 09:17 | 40.07633 | 116.59923 | 124 ft | 21 kts | 353° |
| 2026-05-08 09:17 | 40.07784 | 116.59900 | 124 ft | 23 kts | 353° |
| 2026-05-08 09:17 | 40.07944 | 116.59875 | 124 ft | 24 kts | 353° |
| 2026-05-08 09:17 | 40.08113 | 116.59848 | 125 ft | 25 kts | 353° |
| 2026-05-08 09:18 | 40.08287 | 116.59821 | 125 ft | 25 kts | 353° |
| 2026-05-08 09:18 | 40.08463 | 116.59793 | 122 ft | 26 kts | 353° |
| 2026-05-08 09:18 | 40.08585 | 116.59774 | 125 ft | 27 kts | 353° |
| 2026-05-08 09:18 | 40.08835 | 116.59735 | 122 ft | 22 kts | 353° |
| 2026-05-08 09:19 | 40.08891 | 116.59704 | 126 ft | 7 kts | 284° |
| 2026-05-08 09:19 | 40.08890 | 116.59671 | 125 ft | 2 kts | 263° |
| 2026-05-08 09:19 | 40.08890 | 116.59663 | 126 ft | 0 kts | 263° |
| 2026-05-08 09:22 | 40.08823 | 116.59502 | 124 ft | 0 kts | 172° |
| 2026-05-08 09:23 | 40.08818 | 116.59503 | 123 ft | 3 kts | 172° |
| 2026-05-08 09:23 | 40.08670 | 116.59527 | 124 ft | 51 kts | 173° |
| 2026-05-08 09:23 | 40.08108 | 116.59615 | 126 ft | 110 kts | 173° |
| 2026-05-08 09:24 | 40.07165 | 116.59754 | 125 ft | 160 kts | 177° |
| 2026-05-08 09:24 | 40.05965 | 116.59920 | 424 ft | 186 kts | 175° |
| 2026-05-08 09:24 | 40.04657 | 116.60123 | 1002 ft | 192 kts | 173° |
| 2026-05-08 09:24 | 40.03374 | 116.60340 | 2019 ft | 182 kts | 175° |
| 2026-05-08 09:25 | 40.02095 | 116.60549 | 2861 ft | 188 kts | 174° |
| 2026-05-08 09:25 | 40.00762 | 116.60779 | 3588 ft | 199 kts | 174° |
| 2026-05-08 09:25 | 39.99336 | 116.60999 | 4184 ft | 218 kts | 175° |
| 2026-05-08 09:25 | 39.97732 | 116.61243 | 4729 ft | 239 kts | 175° |
| 2026-05-08 09:26 | 39.96037 | 116.61503 | 5513 ft | 254 kts | 175° |
| 2026-05-08 09:26 | 39.94239 | 116.61782 | 6356 ft | 262 kts | 176° |
| 2026-05-08 09:26 | 39.92413 | 116.62065 | 7253 ft | 268 kts | 176° |
| 2026-05-08 09:26 | 39.90522 | 116.62360 | 7973 ft | 280 kts | 176° |
| 2026-05-08 09:27 | 39.88568 | 116.62664 | 8810 ft | 287 kts | 177° |
| 2026-05-08 09:27 | 39.86548 | 116.62978 | 9536 ft | 297 kts | 177° |
| 2026-05-08 09:27 | 39.84468 | 116.63301 | 10292 ft | 306 kts | 177° |
| 2026-05-08 09:27 | 39.82292 | 116.63633 | 10713 ft | 325 kts | 177° |
| 2026-05-08 09:28 | 39.80055 | 116.63976 | 11051 ft | 345 kts | 176° |
| 2026-05-08 09:28 | 39.77636 | 116.64346 | 11390 ft | 364 kts | 176° |
| 2026-05-08 09:28 | 39.75070 | 116.64738 | 11843 ft | 377 kts | 176° |
| 2026-05-08 09:28 | 39.72448 | 116.64861 | 12495 ft | 377 kts | 191° |
| 2026-05-08 09:29 | 39.69935 | 116.63937 | 13111 ft | 375 kts | 211° |
| 2026-05-08 09:29 | 39.67834 | 116.61989 | 13730 ft | 369 kts | 231° |
| 2026-05-08 09:29 | 39.66355 | 116.59306 | 14236 ft | 365 kts | 250° |
| 2026-05-08 09:29 | 39.65590 | 116.56213 | 14850 ft | 359 kts | 265° |
| 2026-05-08 09:30 | 39.65216 | 116.52999 | 15421 ft | 361 kts | 267° |
| 2026-05-08 09:30 | 39.64912 | 116.49745 | 16012 ft | 364 kts | 269° |
| 2026-05-08 09:30 | 39.64654 | 116.46506 | 16604 ft | 367 kts | 269° |
| 2026-05-08 09:30 | 39.64412 | 116.43199 | 17173 ft | 370 kts | 270° |
| 2026-05-08 09:31 | 39.64180 | 116.39860 | 17748 ft | 373 kts | 270° |
| 2026-05-08 09:31 | 39.63955 | 116.36500 | 18301 ft | 375 kts | 270° |
| 2026-05-08 09:31 | 39.63730 | 116.33103 | 18760 ft | 379 kts | 270° |
| 2026-05-08 09:31 | 39.63505 | 116.29690 | 19249 ft | 381 kts | 270° |
| 2026-05-08 09:32 | 39.63278 | 116.26255 | 19677 ft | 383 kts | 270° |
| 2026-05-08 09:32 | 39.63048 | 116.22792 | 20091 ft | 386 kts | 270° |
| 2026-05-08 09:32 | 39.62817 | 116.19312 | 20506 ft | 388 kts | 270° |
| 2026-05-08 09:32 | 39.62583 | 116.15817 | 20924 ft | 391 kts | 270° |
| 2026-05-08 09:33 | 39.62346 | 116.12288 | 21343 ft | 393 kts | 270° |
| 2026-05-08 09:33 | 39.62110 | 116.08793 | 21748 ft | 395 kts | 269° |
| 2026-05-08 09:33 | 39.61868 | 116.05223 | 22151 ft | 398 kts | 270° |
| 2026-05-08 09:33 | 39.61624 | 116.01634 | 22555 ft | 401 kts | 269° |
| 2026-05-08 09:34 | 39.61377 | 115.98020 | 22948 ft | 403 kts | 269° |
| 2026-05-08 09:34 | 39.61127 | 115.94377 | 23343 ft | 406 kts | 269° |
| 2026-05-08 09:34 | 39.60874 | 115.90715 | 23698 ft | 408 kts | 269° |
| 2026-05-08 09:34 | 39.60621 | 115.87033 | 24042 ft | 410 kts | 270° |
| 2026-05-08 09:35 | 39.60794 | 115.83385 | 24380 ft | 403 kts | 287° |
| 2026-05-08 09:35 | 39.61758 | 115.80008 | 24688 ft | 400 kts | 298° |
| 2026-05-08 09:35 | 39.62981 | 115.76796 | 24994 ft | 403 kts | 299° |
| 2026-05-08 09:35 | 39.64264 | 115.73549 | 25325 ft | 405 kts | 299° |
| 2026-05-08 09:36 | 39.65571 | 115.70306 | 25631 ft | 406 kts | 300° |
| 2026-05-08 09:36 | 39.66895 | 115.67061 | 25977 ft | 408 kts | 300° |
| 2026-05-08 09:36 | 39.68236 | 115.63805 | 26297 ft | 410 kts | 300° |
| 2026-05-08 09:36 | 39.69590 | 115.60536 | 26585 ft | 412 kts | 300° |
| 2026-05-08 09:37 | 39.70948 | 115.57254 | 26859 ft | 415 kts | 300° |
| 2026-05-08 09:37 | 39.72316 | 115.53944 | 27188 ft | 416 kts | 300° |
| 2026-05-08 09:37 | 39.73667 | 115.50618 | 27501 ft | 418 kts | 296° |
| 2026-05-08 09:37 | 39.74519 | 115.46987 | 27812 ft | 424 kts | 281° |
| 2026-05-08 09:38 | 39.74545 | 115.43131 | 28104 ft | 433 kts | 266° |
| 2026-05-08 09:38 | 39.73746 | 115.39326 | 28419 ft | 442 kts | 251° |
| 2026-05-08 09:38 | 39.72422 | 115.35695 | 28713 ft | 445 kts | 249° |
| 2026-05-08 09:38 | 39.71051 | 115.32082 | 28978 ft | 447 kts | 248° |
| 2026-05-08 09:39 | 39.69649 | 115.28466 | 29258 ft | 448 kts | 248° |
| 2026-05-08 09:39 | 39.68229 | 115.24854 | 29486 ft | 450 kts | 248° |
| 2026-05-08 09:39 | 39.66793 | 115.21232 | 29792 ft | 451 kts | 248° |
| 2026-05-08 09:39 | 39.65359 | 115.17629 | 30169 ft | 449 kts | 248° |
| 2026-05-08 09:40 | 39.63925 | 115.14030 | 30522 ft | 447 kts | 248° |
| 2026-05-08 09:40 | 39.62516 | 115.10498 | 30875 ft | 446 kts | 248° |
| 2026-05-08 09:40 | 39.61094 | 115.06938 | 31206 ft | 444 kts | 248° |
| 2026-05-08 09:40 | 39.59673 | 115.03386 | 31552 ft | 443 kts | 248° |
| 2026-05-08 09:41 | 39.58258 | 114.99849 | 31921 ft | 441 kts | 248° |
| 2026-05-08 09:41 | 39.56843 | 114.96317 | 32255 ft | 439 kts | 248° |
| 2026-05-08 09:41 | 39.55439 | 114.92818 | 32616 ft | 437 kts | 248° |
| 2026-05-08 09:41 | 39.54039 | 114.89336 | 32965 ft | 435 kts | 248° |
| 2026-05-08 09:42 | 39.52642 | 114.85862 | 33303 ft | 433 kts | 248° |
| 2026-05-08 09:42 | 39.51255 | 114.82417 | 33628 ft | 431 kts | 248° |
| 2026-05-08 09:42 | 39.49871 | 114.78983 | 33947 ft | 429 kts | 248° |
| 2026-05-08 09:42 | 39.48487 | 114.75553 | 34079 ft | 429 kts | 248° |
| 2026-05-08 09:43 | 39.47108 | 114.72141 | 34070 ft | 427 kts | 248° |
| 2026-05-08 09:43 | 39.44375 | 114.65387 | 34062 ft | 425 kts | 247° |
| 2026-05-08 09:44 | 39.41625 | 114.58605 | 34070 ft | 426 kts | 247° |
| 2026-05-08 09:44 | 39.38868 | 114.51820 | 34062 ft | 425 kts | 247° |
| 2026-05-08 09:45 | 39.36107 | 114.45061 | 34072 ft | 425 kts | 247° |
| 2026-05-08 09:45 | 39.33354 | 114.38335 | 34069 ft | 425 kts | 247° |
| 2026-05-08 09:46 | 39.30592 | 114.31590 | 34063 ft | 424 kts | 247° |
| 2026-05-08 09:46 | 39.27832 | 114.24849 | 34065 ft | 425 kts | 247° |
| 2026-05-08 09:47 | 39.24994 | 114.18143 | 34061 ft | 429 kts | 240° |
| 2026-05-08 09:47 | 39.22956 | 114.15279 | 34061 ft | 440 kts | 225° |
| 2026-05-08 09:47 | 39.20323 | 114.13177 | 34066 ft | 454 kts | 210° |
| 2026-05-08 09:48 | 39.14206 | 114.10687 | 34068 ft | 463 kts | 202° |
| 2026-05-08 09:48 | 39.08002 | 114.08423 | 34062 ft | 463 kts | 202° |
| 2026-05-08 09:49 | 39.01791 | 114.06208 | 34064 ft | 463 kts | 202° |
| 2026-05-08 09:49 | 38.95597 | 114.04009 | 34059 ft | 463 kts | 202° |
| 2026-05-08 09:50 | 38.89387 | 114.01807 | 34056 ft | 462 kts | 202° |
| 2026-05-08 09:50 | 38.83175 | 113.99609 | 34054 ft | 462 kts | 202° |
| 2026-05-08 09:51 | 38.76971 | 113.97418 | 34051 ft | 462 kts | 203° |
| 2026-05-08 09:51 | 38.70801 | 113.95242 | 34044 ft | 462 kts | 203° |
| 2026-05-08 09:52 | 38.64598 | 113.93060 | 34032 ft | 462 kts | 203° |
| 2026-05-08 09:52 | 38.58410 | 113.90884 | 34029 ft | 461 kts | 204° |
| 2026-05-08 09:53 | 38.52238 | 113.88719 | 34025 ft | 459 kts | 204° |
| 2026-05-08 09:53 | 38.46072 | 113.86559 | 34006 ft | 458 kts | 204° |
| 2026-05-08 09:54 | 38.39930 | 113.84407 | 34013 ft | 456 kts | 205° |
| 2026-05-08 09:54 | 38.37056 | 113.82888 | 34004 ft | 436 kts | 220° |
| 2026-05-08 09:54 | 38.34711 | 113.80582 | 34015 ft | 419 kts | 233° |
| 2026-05-08 09:54 | 38.32930 | 113.77723 | 34015 ft | 407 kts | 245° |
| 2026-05-08 09:55 | 38.31498 | 113.74672 | 34029 ft | 406 kts | 247° |
| 2026-05-08 09:55 | 38.28867 | 113.68370 | 34034 ft | 399 kts | 249° |
| 2026-05-08 09:56 | 38.26409 | 113.62041 | 34022 ft | 398 kts | 250° |
| 2026-05-08 09:56 | 38.23997 | 113.55709 | 34065 ft | 397 kts | 250° |
| 2026-05-08 09:57 | 38.20414 | 113.46275 | 34048 ft | 396 kts | 250° |
| 2026-05-08 09:57 | 38.18011 | 113.39966 | 34065 ft | 396 kts | 250° |
| 2026-05-08 09:58 | 38.15645 | 113.33665 | 34072 ft | 395 kts | 251° |
| 2026-05-08 09:58 | 38.13295 | 113.27355 | 34072 ft | 394 kts | 250° |
| 2026-05-08 09:59 | 38.10942 | 113.21056 | 34076 ft | 394 kts | 250° |
| 2026-05-08 09:59 | 38.08579 | 113.14743 | 34100 ft | 395 kts | 250° |
| 2026-05-08 10:00 | 38.06237 | 113.08498 | 34108 ft | 394 kts | 250° |
| 2026-05-08 10:00 | 38.03874 | 113.02212 | 34097 ft | 394 kts | 250° |
| 2026-05-08 10:01 | 38.01505 | 112.95919 | 34095 ft | 395 kts | 250° |
| 2026-05-08 10:01 | 37.99131 | 112.89631 | 34101 ft | 395 kts | 250° |
| 2026-05-08 10:02 | 37.96752 | 112.83338 | 34096 ft | 396 kts | 250° |
| 2026-05-08 10:02 | 37.94379 | 112.77078 | 34094 ft | 396 kts | 250° |
| 2026-05-08 10:03 | 37.91986 | 112.70773 | 34098 ft | 397 kts | 250° |
| 2026-05-08 10:03 | 37.89137 | 112.64750 | 34086 ft | 411 kts | 232° |
| 2026-05-08 10:04 | 37.86831 | 112.62499 | 34089 ft | 428 kts | 217° |
| 2026-05-08 10:04 | 37.84011 | 112.61075 | 34086 ft | 447 kts | 202° |
| 2026-05-08 10:04 | 37.80852 | 112.60631 | 34082 ft | 468 kts | 186° |
| 2026-05-08 10:04 | 37.77575 | 112.61279 | 34097 ft | 482 kts | 176° |
| 2026-05-08 10:05 | 37.71053 | 112.63238 | 34096 ft | 488 kts | 173° |
| 2026-05-08 10:05 | 37.64475 | 112.65398 | 34096 ft | 487 kts | 174° |
| 2026-05-08 10:06 | 37.57910 | 112.67592 | 34101 ft | 488 kts | 173° |
| 2026-05-08 10:06 | 37.52441 | 112.69422 | 34112 ft | 488 kts | 173° |
| 2026-05-08 10:07 | 37.44766 | 112.71983 | 34128 ft | 488 kts | 173° |
| 2026-05-08 10:07 | 37.39306 | 112.73802 | 34138 ft | 488 kts | 173° |
| 2026-05-08 10:08 | 37.32741 | 112.75985 | 34141 ft | 488 kts | 173° |
| 2026-05-08 10:08 | 37.26171 | 112.78165 | 34145 ft | 488 kts | 173° |
| 2026-05-08 10:09 | 37.19647 | 112.80327 | 34139 ft | 487 kts | 173° |
| 2026-05-08 10:09 | 37.13076 | 112.82500 | 34160 ft | 488 kts | 173° |
| 2026-05-08 10:10 | 37.06515 | 112.84667 | 34156 ft | 487 kts | 173° |
| 2026-05-08 10:10 | 36.99945 | 112.86838 | 34162 ft | 488 kts | 173° |
| 2026-05-08 10:11 | 36.93369 | 112.89008 | 34159 ft | 489 kts | 173° |
| 2026-05-08 10:11 | 36.86784 | 112.91177 | 34160 ft | 489 kts | 173° |
| 2026-05-08 10:12 | 36.80179 | 112.93349 | 34164 ft | 491 kts | 173° |
| 2026-05-08 10:12 | 36.73615 | 112.95503 | 34164 ft | 491 kts | 173° |
| 2026-05-08 10:13 | 36.66996 | 112.97672 | 34165 ft | 492 kts | 173° |
| 2026-05-08 10:13 | 36.60366 | 112.99841 | 34171 ft | 492 kts | 173° |
| 2026-05-08 10:14 | 36.53734 | 113.02006 | 34172 ft | 493 kts | 173° |
| 2026-05-08 10:14 | 36.47095 | 113.04169 | 34175 ft | 494 kts | 173° |
| 2026-05-08 10:15 | 36.40435 | 113.06336 | 34179 ft | 494 kts | 173° |
| 2026-05-08 10:15 | 36.33768 | 113.08501 | 34179 ft | 495 kts | 173° |
| 2026-05-08 10:16 | 36.27102 | 113.10663 | 34183 ft | 495 kts | 173° |
| 2026-05-08 10:16 | 36.20537 | 113.13243 | 34199 ft | 501 kts | 167° |
| 2026-05-08 10:17 | 36.13973 | 113.16180 | 34196 ft | 501 kts | 167° |
| 2026-05-08 10:17 | 36.07417 | 113.19122 | 34201 ft | 501 kts | 167° |
| 2026-05-08 10:18 | 36.00857 | 113.22062 | 34200 ft | 501 kts | 167° |
| 2026-05-08 10:18 | 35.94300 | 113.24996 | 34207 ft | 500 kts | 167° |
| 2026-05-08 10:19 | 35.87803 | 113.27898 | 34216 ft | 499 kts | 167° |
| 2026-05-08 10:20 | 35.78004 | 113.32280 | 34219 ft | 499 kts | 167° |
| 2026-05-08 10:20 | 35.71476 | 113.35196 | 34221 ft | 497 kts | 167° |
| 2026-05-08 10:21 | 35.65006 | 113.38080 | 34214 ft | 497 kts | 167° |
| 2026-05-08 10:21 | 35.58507 | 113.40969 | 34221 ft | 496 kts | 167° |
| 2026-05-08 10:22 | 35.52018 | 113.43848 | 34210 ft | 495 kts | 167° |
| 2026-05-08 10:22 | 35.45536 | 113.46720 | 34199 ft | 495 kts | 167° |
| 2026-05-08 10:23 | 35.39067 | 113.49617 | 34202 ft | 495 kts | 167° |
| 2026-05-08 10:23 | 35.35835 | 113.51063 | 34055 ft | 491 kts | 167° |
| 2026-05-08 10:23 | 35.32614 | 113.52500 | 32913 ft | 497 kts | 167° |
| 2026-05-08 10:23 | 35.29338 | 113.53963 | 32041 ft | 500 kts | 167° |
| 2026-05-08 10:24 | 35.26119 | 113.55397 | 31129 ft | 501 kts | 167° |
| 2026-05-08 10:24 | 35.22816 | 113.56869 | 30205 ft | 504 kts | 166° |
| 2026-05-08 10:24 | 35.19536 | 113.58330 | 29507 ft | 499 kts | 166° |
| 2026-05-08 10:24 | 35.16284 | 113.59776 | 28677 ft | 497 kts | 166° |
| 2026-05-08 10:25 | 35.13028 | 113.61224 | 27754 ft | 498 kts | 165° |
| 2026-05-08 10:25 | 35.09771 | 113.62665 | 26877 ft | 498 kts | 165° |
| 2026-05-08 10:25 | 35.06516 | 113.64092 | 26177 ft | 495 kts | 164° |
| 2026-05-08 10:25 | 35.03292 | 113.65505 | 25533 ft | 490 kts | 164° |
| 2026-05-08 10:26 | 35.00084 | 113.66911 | 24917 ft | 486 kts | 163° |
| 2026-05-08 10:26 | 34.96917 | 113.68297 | 24352 ft | 482 kts | 163° |
| 2026-05-08 10:26 | 34.93778 | 113.69670 | 23770 ft | 478 kts | 163° |
| 2026-05-08 10:26 | 34.90655 | 113.71035 | 23081 ft | 475 kts | 162° |
| 2026-05-08 10:27 | 34.87598 | 113.72369 | 22465 ft | 470 kts | 163° |
| 2026-05-08 10:27 | 34.84484 | 113.73478 | 21880 ft | 463 kts | 167° |
| 2026-05-08 10:27 | 34.81392 | 113.74507 | 21291 ft | 459 kts | 166° |
| 2026-05-08 10:27 | 34.78329 | 113.75549 | 20718 ft | 455 kts | 166° |
| 2026-05-08 10:28 | 34.75296 | 113.76591 | 20153 ft | 451 kts | 166° |
| 2026-05-08 10:28 | 34.72287 | 113.77624 | 19608 ft | 447 kts | 166° |
| 2026-05-08 10:28 | 34.69301 | 113.78625 | 19065 ft | 444 kts | 162° |
| 2026-05-08 10:28 | 34.66544 | 113.80280 | 18557 ft | 441 kts | 145° |
| 2026-05-08 10:29 | 34.64284 | 113.82727 | 18137 ft | 433 kts | 129° |
| 2026-05-08 10:29 | 34.62661 | 113.85745 | 17752 ft | 422 kts | 114° |
| 2026-05-08 10:29 | 34.61428 | 113.88947 | 17422 ft | 414 kts | 112° |
| 2026-05-08 10:29 | 34.60283 | 113.92115 | 17070 ft | 407 kts | 111° |
| 2026-05-08 10:30 | 34.59190 | 113.95233 | 16571 ft | 396 kts | 111° |
| 2026-05-08 10:30 | 34.58140 | 113.98279 | 15985 ft | 386 kts | 110° |
| 2026-05-08 10:30 | 34.57147 | 114.01188 | 15715 ft | 369 kts | 110° |
| 2026-05-08 10:30 | 34.56182 | 114.04027 | 15523 ft | 350 kts | 110° |
| 2026-05-08 10:31 | 34.55289 | 114.06658 | 15366 ft | 332 kts | 110° |
| 2026-05-08 10:31 | 34.54431 | 114.09186 | 15214 ft | 316 kts | 110° |
| 2026-05-08 10:31 | 34.53603 | 114.11623 | 15046 ft | 307 kts | 110° |
| 2026-05-08 10:31 | 34.52799 | 114.13988 | 14891 ft | 300 kts | 110° |
| 2026-05-08 10:32 | 34.52013 | 114.16299 | 14718 ft | 293 kts | 110° |
| 2026-05-08 10:32 | 34.51242 | 114.18563 | 14484 ft | 289 kts | 110° |
| 2026-05-08 10:32 | 34.50473 | 114.20823 | 14110 ft | 291 kts | 110° |
| 2026-05-08 10:32 | 34.49698 | 114.23096 | 13739 ft | 292 kts | 110° |
| 2026-05-08 10:33 | 34.48919 | 114.25381 | 13357 ft | 293 kts | 110° |
| 2026-05-08 10:33 | 34.48140 | 114.27661 | 13006 ft | 292 kts | 110° |
| 2026-05-08 10:33 | 34.47364 | 114.29934 | 12661 ft | 292 kts | 110° |
| 2026-05-08 10:33 | 34.46598 | 114.32177 | 12319 ft | 292 kts | 109° |
| 2026-05-08 10:34 | 34.45820 | 114.34450 | 11984 ft | 291 kts | 109° |
| 2026-05-08 10:34 | 34.45044 | 114.36716 | 11640 ft | 291 kts | 109° |
| 2026-05-08 10:34 | 34.44268 | 114.38981 | 11287 ft | 292 kts | 109° |
| 2026-05-08 10:34 | 34.43279 | 114.41143 | 10829 ft | 300 kts | 130° |
| 2026-05-08 10:35 | 34.41511 | 114.42503 | 10368 ft | 309 kts | 164° |
| 2026-05-08 10:35 | 34.39390 | 114.42511 | 9994 ft | 308 kts | 198° |
| 2026-05-08 10:35 | 34.37441 | 114.41461 | 9641 ft | 305 kts | 206° |
| 2026-05-08 10:35 | 34.35537 | 114.40333 | 9254 ft | 303 kts | 217° |
| 2026-05-08 10:36 | 34.34202 | 114.38479 | 8846 ft | 286 kts | 250° |
| 2026-05-08 10:36 | 34.33905 | 114.36217 | 8557 ft | 265 kts | 281° |
| 2026-05-08 10:36 | 34.34420 | 114.34207 | 8381 ft | 244 kts | 296° |
| 2026-05-08 10:36 | 34.35043 | 114.32340 | 8114 ft | 234 kts | 295° |
| 2026-05-08 10:37 | 34.35623 | 114.30529 | 7825 ft | 229 kts | 294° |
| 2026-05-08 10:37 | 34.36187 | 114.28735 | 7541 ft | 227 kts | 294° |
| 2026-05-08 10:37 | 34.36741 | 114.26952 | 7262 ft | 225 kts | 293° |
| 2026-05-08 10:37 | 34.37303 | 114.25196 | 6978 ft | 223 kts | 296° |
| 2026-05-08 10:38 | 34.37976 | 114.23488 | 6573 ft | 227 kts | 297° |
| 2026-05-08 10:38 | 34.38662 | 114.21747 | 6176 ft | 230 kts | 297° |
| 2026-05-08 10:38 | 34.39346 | 114.19995 | 5859 ft | 229 kts | 297° |
| 2026-05-08 10:38 | 34.40014 | 114.18272 | 5639 ft | 223 kts | 296° |
| 2026-05-08 10:39 | 34.40663 | 114.16594 | 5472 ft | 216 kts | 296° |
| 2026-05-08 10:39 | 34.41279 | 114.14998 | 5336 ft | 208 kts | 296° |
| 2026-05-08 10:39 | 34.41893 | 114.13403 | 4988 ft | 211 kts | 296° |
| 2026-05-08 10:39 | 34.42470 | 114.11765 | 4679 ft | 211 kts | 294° |
| 2026-05-08 10:40 | 34.43027 | 114.10135 | 4453 ft | 207 kts | 294° |
| 2026-05-08 10:40 | 34.43566 | 114.08562 | 4278 ft | 198 kts | 294° |
| 2026-05-08 10:40 | 34.44083 | 114.07060 | 4053 ft | 188 kts | 294° |
| 2026-05-08 10:40 | 34.44574 | 114.05633 | 3808 ft | 180 kts | 294° |
| 2026-05-08 10:41 | 34.45056 | 114.04233 | 3598 ft | 180 kts | 294° |
| 2026-05-08 10:41 | 34.45538 | 114.02835 | 3376 ft | 180 kts | 294° |
| 2026-05-08 10:41 | 34.46021 | 114.01434 | 3151 ft | 180 kts | 293° |
| 2026-05-08 10:41 | 34.46505 | 114.00037 | 2937 ft | 180 kts | 294° |
| 2026-05-08 10:42 | 34.46991 | 113.98652 | 2711 ft | 176 kts | 293° |
| 2026-05-08 10:42 | 34.47451 | 113.97313 | 2477 ft | 167 kts | 293° |
| 2026-05-08 10:42 | 34.47871 | 113.96078 | 2313 ft | 158 kts | 293° |
| 2026-05-08 10:42 | 34.48291 | 113.94842 | 2095 ft | 159 kts | 293° |
| 2026-05-08 10:43 | 34.48714 | 113.93599 | 1884 ft | 160 kts | 293° |
| 2026-05-08 10:43 | 34.49138 | 113.92348 | 1668 ft | 161 kts | 293° |
| 2026-05-08 10:43 | 34.49562 | 113.91099 | 1442 ft | 160 kts | 293° |
| 2026-05-08 10:43 | 34.49989 | 113.89863 | 1266 ft | 157 kts | 294° |
| 2026-05-08 10:44 | 34.50400 | 113.88648 | 1034 ft | 154 kts | 290° |
| 2026-05-08 10:44 | 34.50799 | 113.87456 | 814 ft | 151 kts | 291° |
| 2026-05-08 10:44 | 34.51205 | 113.86280 | 623 ft | 149 kts | 290° |
| 2026-05-08 10:44 | 34.51587 | 113.85146 | 503 ft | 134 kts | 292° |
| 2026-05-08 10:45 | 34.51851 | 113.84367 | 503 ft | 67 kts | 293° |
| 2026-05-08 10:45 | 34.51973 | 113.84054 | 502 ft | 27 kts | 301° |
| 2026-05-08 10:45 | 34.52100 | 113.83886 | 503 ft | 25 kts | 320° |
| 2026-05-08 10:45 | 34.52181 | 113.83839 | 506 ft | 8 kts | 29° |
| 2026-05-08 10:46 | 34.52193 | 113.83897 | 506 ft | 7 kts | 105° |
| 2026-05-08 10:46 | 34.52172 | 113.83960 | 506 ft | 9 kts | 113° |
| 2026-05-08 10:46 | 34.52144 | 113.84041 | 506 ft | 12 kts | 112° |
| 2026-05-08 10:46 | 34.52111 | 113.84138 | 506 ft | 13 kts | 112° |
| 2026-05-08 10:47 | 34.52073 | 113.84250 | 506 ft | 15 kts | 112° |
| 2026-05-08 10:47 | 34.52031 | 113.84375 | 507 ft | 17 kts | 112° |
| 2026-05-08 10:47 | 34.51984 | 113.84514 | 507 ft | 18 kts | 113° |
| 2026-05-08 10:47 | 34.51933 | 113.84664 | 507 ft | 20 kts | 110° |
| 2026-05-08 10:48 | 34.51878 | 113.84824 | 507 ft | 22 kts | 112° |
| 2026-05-08 10:48 | 34.51864 | 113.84936 | 507 ft | 11 kts | 47° |
| 2026-05-08 10:48 | 34.51936 | 113.84977 | 507 ft | 12 kts | 21° |
| 2026-05-08 10:48 | 34.52021 | 113.85021 | 507 ft | 14 kts | 23° |
| 2026-05-08 10:49 | 34.52120 | 113.85069 | 507 ft | 16 kts | 21° |
| 2026-05-08 10:49 | 34.52231 | 113.85125 | 507 ft | 18 kts | 22° |
| 2026-05-08 10:49 | 34.52352 | 113.85185 | 507 ft | 13 kts | 15° |
| 2026-05-08 10:49 | 34.52401 | 113.85137 | 507 ft | 6 kts | 292° |
| 2026-05-08 10:50 | 34.52418 | 113.85088 | 507 ft | 6 kts | 292° |
| 2026-05-08 10:50 | 34.52425 | 113.85067 | 507 ft | 0 kts | 292° |
| 2026-05-08 10:50 | 34.52426 | 113.85065 | 507 ft | 0 kts | 292° |